createdAt,value
2019-06-26T00:01:14.061Z,95800.13
2019-06-26T00:03:43.917Z,95808.48
2019-06-26T00:06:13.983Z,95809.26
2019-06-26T00:08:43.884Z,95810.30
2019-06-26T00:11:13.790Z,95813.41
2019-06-26T00:13:43.719Z,95808.94
2019-06-26T00:16:13.620Z,95807.80
2019-06-26T00:18:43.745Z,95810.77
2019-06-26T00:21:14.019Z,95809.53
2019-06-26T00:23:43.914Z,95817.11
2019-06-26T00:26:13.893Z,95816.22
2019-06-26T00:28:43.739Z,95816.00
2019-06-26T00:31:13.570Z,95818.17
2019-06-26T00:33:43.493Z,95811.38
2019-06-26T00:36:13.404Z,95814.15
2019-06-26T00:38:43.377Z,95807.79
2019-06-26T00:41:13.231Z,95822.66
2019-06-26T00:43:43.220Z,95822.81
2019-06-26T00:46:14.188Z,95818.41
2019-06-26T00:48:44.114Z,95825.33
2019-06-26T00:51:14.101Z,95822.94
2019-06-26T00:53:44.069Z,95821.91
2019-06-26T00:56:13.904Z,95820.11
2019-06-26T00:58:43.816Z,95816.70
2019-06-26T01:01:13.638Z,95817.03
2019-06-26T01:03:43.594Z,95822.58
2019-06-26T01:06:32.429Z,95818.64
2019-06-26T01:09:02.423Z,95819.91
2019-06-26T01:11:33.882Z,95816.73
2019-06-26T01:14:03.878Z,95814.09
2019-06-26T01:16:33.867Z,95812.28
2019-06-26T01:19:03.828Z,95812.25
2019-06-26T01:21:33.830Z,95813.82
2019-06-26T01:24:03.724Z,95813.09
2019-06-26T01:26:33.634Z,95819.61
2019-06-26T01:29:03.623Z,95813.88
2019-06-26T01:31:33.539Z,95815.64
2019-06-26T01:34:03.504Z,95816.32
2019-06-26T01:36:33.751Z,95817.30
2019-06-26T01:39:05.029Z,95821.94
2019-06-26T01:41:35.217Z,95820.12
2019-06-26T01:44:14.618Z,95819.03
2019-06-26T01:46:37.985Z,95819.48
2019-06-26T01:49:07.904Z,95820.39
2019-06-26T01:51:37.829Z,95815.17
2019-06-26T01:54:08.868Z,95816.50
2019-06-26T01:56:38.695Z,95817.27
2019-06-26T01:59:08.531Z,95825.30
2019-06-26T02:01:39.417Z,95818.88
2019-06-26T02:04:09.433Z,95821.72
2019-06-26T02:06:39.328Z,95821.20
2019-06-26T02:09:09.243Z,95822.23
2019-06-26T02:11:39.074Z,95825.19
2019-06-26T02:14:09.056Z,95827.87
2019-06-26T02:16:38.953Z,95831.47
2019-06-26T02:19:10.179Z,95826.02
2019-06-26T02:21:40.160Z,95829.93
2019-06-26T02:24:10.096Z,95833.84
2019-06-26T02:26:40.071Z,95833.33
2019-06-26T02:29:10.070Z,95838.30
2019-06-26T02:31:39.971Z,95839.52
2019-06-26T02:34:09.894Z,95845.88
2019-06-26T02:36:39.808Z,95843.55
2019-06-26T02:39:09.775Z,95842.99
2019-06-26T02:41:39.771Z,95837.39
2019-06-26T02:44:09.611Z,95837.16
2019-06-26T02:46:39.592Z,95839.14
2019-06-26T02:49:09.435Z,95843.32
2019-06-26T02:51:39.259Z,95840.23
2019-06-26T02:54:09.267Z,95843.43
2019-06-26T02:56:39.177Z,95841.54
2019-06-26T02:59:09.094Z,95838.58
2019-06-26T03:01:39.018Z,95835.39
2019-06-26T03:04:08.999Z,95833.06
2019-06-26T03:06:38.870Z,95839.03
2019-06-26T03:09:08.844Z,95838.70
2019-06-26T03:11:38.765Z,95834.72
2019-06-26T03:14:08.659Z,95840.72
2019-06-26T03:16:38.586Z,95843.45
2019-06-26T03:19:08.512Z,95835.36
2019-06-26T03:21:38.364Z,95837.13
2019-06-26T03:24:08.346Z,95834.92
2019-06-26T03:26:38.175Z,95836.97
2019-06-26T03:29:08.006Z,95830.94
2019-06-26T03:31:37.931Z,95846.75
2019-06-26T03:34:07.830Z,95836.29
2019-06-26T03:36:37.827Z,95836.80
2019-06-26T03:39:08.725Z,95837.36
2019-06-26T03:41:38.627Z,95843.63
2019-06-26T03:44:08.543Z,95839.77
2019-06-26T03:46:38.450Z,95834.09
2019-06-26T03:49:08.273Z,95846.61
2019-06-26T03:51:38.212Z,95843.17
2019-06-26T03:54:08.109Z,95847.39
2019-06-26T03:56:37.948Z,95851.38
2019-06-26T03:59:07.861Z,95857.66
2019-06-26T04:01:37.695Z,95853.98
2019-06-26T04:04:07.590Z,95854.58
2019-06-26T04:06:37.458Z,95860.03
2019-06-26T04:09:07.668Z,95853.88
2019-06-26T04:11:37.509Z,95865.20
2019-06-26T04:14:07.486Z,95863.30
2019-06-26T04:16:37.301Z,95862.35
2019-06-26T04:19:07.189Z,95873.68
2019-06-26T04:21:37.027Z,95866.75
2019-06-26T04:24:06.855Z,95869.22
2019-06-26T04:26:36.735Z,95869.84
2019-06-26T04:29:07.286Z,95864.69
2019-06-26T04:31:37.203Z,95864.55
2019-06-26T04:34:07.108Z,95863.33
2019-06-26T04:36:36.944Z,95864.95
2019-06-26T04:39:07.818Z,95862.82
2019-06-26T04:41:37.743Z,95864.27
2019-06-26T04:44:07.648Z,95871.11
2019-06-26T04:46:37.509Z,95873.34
2019-06-26T04:49:07.397Z,95874.46
2019-06-26T04:51:37.235Z,95870.60
2019-06-26T04:54:07.150Z,95869.85
2019-06-26T04:56:37.007Z,95873.56
2019-06-26T04:59:06.836Z,95870.44
2019-06-26T05:01:36.754Z,95870.48
2019-06-26T05:04:06.600Z,95870.30
2019-06-26T05:06:36.474Z,95876.61
2019-06-26T05:09:08.141Z,95874.06
2019-06-26T05:11:37.976Z,95871.99
2019-06-26T05:14:08.075Z,95874.16
2019-06-26T05:16:37.898Z,95873.41
2019-06-26T05:19:08.780Z,95874.47
2019-06-26T05:21:38.688Z,95879.22
2019-06-26T05:24:08.704Z,95880.55
2019-06-26T05:26:38.710Z,95887.59
2019-06-26T05:29:08.610Z,95888.45
2019-06-26T05:31:38.523Z,95888.73
2019-06-26T05:34:10.934Z,95887.17
2019-06-26T05:36:40.157Z,95889.53
2019-06-26T05:39:10.170Z,95890.05
2019-06-26T05:41:40.025Z,95893.75
2019-06-26T05:44:10.055Z,95895.30
2019-06-26T05:46:40.137Z,95903.18
2019-06-26T05:49:10.335Z,95900.59
2019-06-26T05:51:40.282Z,95900.33
2019-06-26T05:54:10.118Z,95900.06
2019-06-26T05:56:39.962Z,95904.52
2019-06-26T05:59:09.856Z,95901.12
2019-06-26T06:01:39.848Z,95906.59
2019-06-26T06:04:09.859Z,95908.17
2019-06-26T06:06:42.179Z,95908.43
2019-06-26T06:09:11.574Z,95906.81
2019-06-26T06:11:41.383Z,95917.80
2019-06-26T06:14:11.254Z,95916.98
2019-06-26T06:16:47.335Z,95915.91
2019-06-26T06:19:13.880Z,95921.39
2019-06-26T06:21:43.852Z,95918.27
2019-06-26T06:24:13.686Z,95921.66
2019-06-26T06:26:43.564Z,95924.18
2019-06-26T06:29:13.440Z,95922.83
2019-06-26T06:31:43.280Z,95922.53
2019-06-26T06:34:13.166Z,95934.02
2019-06-26T06:36:43.071Z,95934.48
2019-06-26T06:39:12.901Z,95936.31
2019-06-26T06:41:43.546Z,95942.49
2019-06-26T06:44:13.614Z,95942.38
2019-06-26T06:46:43.503Z,95945.22
2019-06-26T06:49:13.413Z,95942.57
2019-06-26T06:51:43.398Z,95946.52
2019-06-26T06:54:14.398Z,95948.84
2019-06-26T06:56:44.220Z,95947.82
2019-06-26T06:59:14.049Z,95950.98
2019-06-26T07:01:44.072Z,95954.73
2019-06-26T07:04:13.925Z,95953.86
2019-06-26T07:06:43.744Z,95952.49
2019-06-26T07:09:13.682Z,95956.52
2019-06-26T07:11:43.593Z,95954.13
2019-06-26T07:14:13.594Z,95959.55
2019-06-26T07:16:43.542Z,95953.81
2019-06-26T07:19:13.523Z,95957.39
2019-06-26T07:21:44.649Z,95948.34
2019-06-26T07:24:14.635Z,95958.98
2019-06-26T07:26:44.491Z,95963.93
2019-06-26T07:29:14.406Z,95959.87
2019-06-26T07:31:44.230Z,95958.73
2019-06-26T07:34:14.115Z,95961.81
2019-06-26T07:36:44.039Z,95963.91
2019-06-26T07:39:13.978Z,95964.06
2019-06-26T07:41:43.885Z,95965.76
2019-06-26T07:44:13.780Z,95970.03
2019-06-26T07:46:43.608Z,95968.49
2019-06-26T07:49:13.589Z,95959.02
2019-06-26T07:51:43.430Z,95966.27
2019-06-26T07:54:13.331Z,95962.02
2019-06-26T07:56:43.177Z,95970.97
2019-06-26T07:59:13.141Z,95964.61
2019-06-26T08:01:43.037Z,95972.98
2019-06-26T08:04:12.945Z,95971.20
2019-06-26T08:06:42.776Z,95970.73
2019-06-26T08:09:12.631Z,95975.38
2019-06-26T08:11:42.497Z,95972.64
2019-06-26T08:14:12.474Z,95973.33
2019-06-26T08:16:42.364Z,95974.56
2019-06-26T08:19:12.370Z,95971.02
2019-06-26T08:21:42.236Z,95970.66
2019-06-26T08:24:12.140Z,95978.95
2019-06-26T08:26:42.012Z,95979.50
2019-06-26T08:29:12.000Z,95978.66
2019-06-26T08:31:41.914Z,95984.98
2019-06-26T08:34:11.806Z,95981.51
2019-06-26T08:36:41.800Z,95982.97
2019-06-26T08:39:12.702Z,95979.63
2019-06-26T08:41:42.615Z,95982.19
2019-06-26T08:44:12.526Z,95986.69
2019-06-26T08:46:42.385Z,95982.80
2019-06-26T08:49:24.857Z,95980.83
2019-06-26T08:51:44.098Z,95979.28
2019-06-26T08:54:13.971Z,95983.14
2019-06-26T08:56:43.868Z,95985.18
2019-06-26T08:59:13.681Z,95981.51
2019-06-26T09:01:43.675Z,95979.41
2019-06-26T09:04:15.089Z,95979.05
2019-06-26T09:06:44.892Z,95983.20
2019-06-26T09:09:14.750Z,95983.78
2019-06-26T09:11:44.690Z,95984.59
2019-06-26T09:14:14.602Z,95987.89
2019-06-26T09:16:45.783Z,95984.05
2019-06-26T09:19:15.597Z,95980.53
2019-06-26T09:21:45.569Z,95975.84
2019-06-26T09:24:15.419Z,95978.58
2019-06-26T09:26:45.318Z,95979.12
2019-06-26T09:29:15.126Z,95985.13
2019-06-26T09:31:45.068Z,95983.80
2019-06-26T09:34:14.923Z,95984.27
2019-06-26T09:36:45.010Z,95979.84
2019-06-26T09:39:14.882Z,95984.92
2019-06-26T09:41:44.823Z,95987.70
2019-06-26T09:44:14.728Z,95986.84
2019-06-26T09:46:44.727Z,95988.98
2019-06-26T09:49:14.643Z,95989.11
2019-06-26T09:51:44.466Z,95989.52
2019-06-26T09:54:14.304Z,95988.62
2019-06-26T09:56:44.150Z,95994.44
2019-06-26T09:59:13.956Z,95992.06
2019-06-26T10:01:43.854Z,95991.28
2019-06-26T10:04:13.950Z,95998.16
2019-06-26T10:06:43.995Z,95995.78
2019-06-26T10:09:13.881Z,95995.91
2019-06-26T10:11:43.791Z,95995.59
2019-06-26T10:14:13.747Z,95993.66
2019-06-26T10:16:43.612Z,95985.89
2019-06-26T10:19:13.439Z,95987.80
2019-06-26T10:21:43.331Z,95986.85
2019-06-26T10:24:13.159Z,95988.11
2019-06-26T10:26:43.155Z,95982.20
2019-06-26T10:29:13.075Z,95984.13
2019-06-26T10:31:43.068Z,95979.27
2019-06-26T10:34:13.054Z,95987.09
2019-06-26T10:36:42.954Z,95984.98
2019-06-26T10:39:12.870Z,95979.11
2019-06-26T10:41:42.940Z,95985.72
2019-06-26T10:44:12.854Z,95988.30
2019-06-26T10:46:42.804Z,95979.62
2019-06-26T10:49:25.770Z,95983.62
2019-06-26T10:51:44.255Z,95985.09
2019-06-26T10:54:14.069Z,95984.08
2019-06-26T10:56:44.204Z,95981.30
2019-06-26T10:59:14.150Z,95982.53
2019-06-26T11:01:44.116Z,95977.97
2019-06-26T11:04:14.009Z,95976.17
2019-06-26T11:06:43.947Z,95974.10
2019-06-26T11:09:13.845Z,95977.86
2019-06-26T11:11:43.791Z,95970.83
2019-06-26T11:14:13.793Z,95968.14
2019-06-26T11:16:43.784Z,95966.50
2019-06-26T11:19:13.621Z,95972.18
2019-06-26T11:21:43.735Z,95965.16
2019-06-26T11:24:13.638Z,95965.16
2019-06-26T11:26:43.637Z,95962.06
2019-06-26T11:29:13.547Z,95963.42
2019-06-26T11:31:43.602Z,95967.25
2019-06-26T11:34:13.414Z,95962.07
2019-06-26T11:36:43.538Z,95955.07
2019-06-26T11:39:13.543Z,95953.11
2019-06-26T11:41:43.690Z,95960.39
2019-06-26T11:44:13.760Z,95953.98
2019-06-26T11:46:43.671Z,95956.77
2019-06-26T11:49:13.642Z,95957.68
2019-06-26T11:51:43.490Z,95950.98
2019-06-26T11:54:13.394Z,95958.46
2019-06-26T11:56:43.288Z,95952.58
2019-06-26T11:59:14.086Z,95951.52
2019-06-26T12:01:43.905Z,95945.45
2019-06-26T12:04:13.899Z,95948.39
2019-06-26T12:06:46.136Z,95945.64
2019-06-26T12:09:15.472Z,95935.62
2019-06-26T12:11:45.397Z,95938.58
2019-06-26T12:14:15.316Z,95939.56
2019-06-26T12:16:45.182Z,95929.03
2019-06-26T12:19:18.659Z,95932.14
2019-06-26T12:21:46.611Z,95939.08
2019-06-26T12:24:16.436Z,95933.74
2019-06-26T12:26:46.342Z,95928.38
2019-06-26T12:29:16.232Z,95929.44
2019-06-26T12:31:46.149Z,95928.16
2019-06-26T12:34:15.982Z,95924.64
2019-06-26T12:36:46.077Z,95931.23
2019-06-26T12:39:15.984Z,95924.09
2019-06-26T12:41:45.871Z,95925.88
2019-06-26T12:44:15.771Z,95915.52
2019-06-26T12:46:45.677Z,95919.58
2019-06-26T12:49:15.618Z,95920.91
2019-06-26T12:51:45.517Z,95914.45
2019-06-26T12:54:15.368Z,95918.02
2019-06-26T12:56:45.265Z,95911.08
2019-06-26T12:59:15.146Z,95915.42
2019-06-26T13:01:45.062Z,95911.70
2019-06-26T13:04:15.049Z,95914.59
2019-06-26T13:06:45.036Z,95915.30
2019-06-26T13:09:14.957Z,95910.62
2019-06-26T13:11:44.928Z,95903.48
2019-06-26T13:14:14.786Z,95909.81
2019-06-26T13:16:44.686Z,95907.67
2019-06-26T13:19:14.699Z,95908.45
2019-06-26T13:21:44.692Z,95908.09
2019-06-26T13:24:14.513Z,95898.83
2019-06-26T13:26:44.421Z,95899.92
2019-06-26T13:29:15.307Z,95903.16
2019-06-26T13:31:45.225Z,95896.39
2019-06-26T13:34:15.067Z,95898.48
2019-06-26T13:36:45.044Z,95904.70
2019-06-26T13:39:15.043Z,95913.05
2019-06-26T13:41:44.862Z,95907.62
2019-06-26T13:44:14.781Z,95908.36
2019-06-26T13:46:44.616Z,95907.52
2019-06-26T13:49:16.632Z,95901.56
2019-06-26T13:51:46.097Z,95904.33
2019-06-26T13:54:16.051Z,95904.94
2019-06-26T13:56:46.022Z,95901.37
2019-06-26T13:59:15.927Z,95905.73
2019-06-26T14:01:45.878Z,95905.95
2019-06-26T14:04:15.763Z,95895.76
2019-06-26T14:06:45.737Z,95900.37
2019-06-26T14:09:16.650Z,95896.38
2019-06-26T14:11:46.555Z,95895.44
2019-06-26T14:14:16.550Z,95898.31
2019-06-26T14:16:46.749Z,95895.25
2019-06-26T14:19:16.783Z,95891.66
2019-06-26T14:21:46.595Z,95891.68
2019-06-26T14:24:16.417Z,95886.77
2019-06-26T14:26:46.425Z,95892.80
2019-06-26T14:29:20.896Z,95885.81
2019-06-26T14:31:47.930Z,95890.59
2019-06-26T14:34:17.750Z,95878.61
2019-06-26T14:36:47.583Z,95890.20
2019-06-26T14:39:17.495Z,95889.88
2019-06-26T14:41:47.443Z,95882.84
2019-06-26T14:44:17.393Z,95886.66
2019-06-26T14:46:47.852Z,95890.09
2019-06-26T14:49:17.688Z,95892.92
2019-06-26T14:51:48.110Z,95881.40
2019-06-26T14:54:18.233Z,95876.20
2019-06-26T14:56:48.062Z,95874.17
2019-06-26T14:59:17.957Z,95875.37
2019-06-26T15:01:47.811Z,95881.38
2019-06-26T15:04:17.720Z,95877.36
2019-06-26T15:06:47.701Z,95870.48
2019-06-26T15:09:17.731Z,95868.01
2019-06-26T15:11:47.709Z,95859.83
2019-06-26T15:14:17.578Z,95864.70
2019-06-26T15:16:47.581Z,95860.91
2019-06-26T15:19:17.424Z,95862.34
2019-06-26T15:21:57.769Z,95856.38
2019-06-26T15:24:18.803Z,95858.86
2019-06-26T15:26:48.794Z,95853.20
2019-06-26T15:29:18.697Z,95854.70
2019-06-26T15:31:48.601Z,95852.91
2019-06-26T15:34:18.439Z,95850.30
2019-06-26T15:36:48.260Z,95843.32
2019-06-26T15:39:18.199Z,95840.95
2019-06-26T15:41:48.023Z,95836.36
2019-06-26T15:44:17.947Z,95839.75
2019-06-26T15:46:47.946Z,95830.02
2019-06-26T15:49:17.930Z,95836.33
2019-06-26T15:51:47.962Z,95828.30
2019-06-26T15:54:17.883Z,95837.91
2019-06-26T15:56:47.713Z,95827.73
2019-06-26T15:59:17.636Z,95827.75
2019-06-26T16:01:47.532Z,95831.08
2019-06-26T16:04:17.459Z,95826.07
2019-06-26T16:06:47.375Z,95834.72
2019-06-26T16:09:18.360Z,95832.31
2019-06-26T16:11:48.282Z,95824.42
2019-06-26T16:14:19.213Z,95828.40
2019-06-26T16:16:50.782Z,95825.13
2019-06-26T16:19:21.439Z,95822.48
2019-06-26T16:21:51.314Z,95822.55
2019-06-26T16:24:21.227Z,95824.98
2019-06-26T16:26:51.203Z,95820.78
2019-06-26T16:29:21.134Z,95824.77
2019-06-26T16:31:50.972Z,95826.96
2019-06-26T16:34:20.888Z,95823.72
2019-06-26T16:36:50.719Z,95824.48
2019-06-26T16:39:22.389Z,95822.38
2019-06-26T16:41:52.512Z,95819.42
2019-06-26T16:44:23.536Z,95816.75
2019-06-26T16:46:53.366Z,95822.66
2019-06-26T16:49:23.225Z,95817.64
2019-06-26T16:51:53.133Z,95815.05
2019-06-26T16:54:23.033Z,95816.55
2019-06-26T16:56:53.019Z,95818.73
2019-06-26T16:59:22.973Z,95818.42
2019-06-26T17:01:53.088Z,95814.91
2019-06-26T17:04:22.944Z,95818.22
2019-06-26T17:06:52.882Z,95812.18
2019-06-26T17:09:22.857Z,95811.37
2019-06-26T17:11:52.772Z,95817.02
2019-06-26T17:14:23.378Z,95809.58
2019-06-26T17:16:53.294Z,95814.55
2019-06-26T17:19:24.128Z,95813.80
2019-06-26T17:21:54.140Z,95817.82
2019-06-26T17:24:23.988Z,95820.33
2019-06-26T17:26:55.011Z,95820.80
2019-06-26T17:29:24.911Z,95822.85
2019-06-26T17:31:54.821Z,95829.92
2019-06-26T17:34:27.144Z,95826.31
2019-06-26T17:36:56.249Z,95827.83
2019-06-26T17:39:26.153Z,95823.70
2019-06-26T17:41:56.213Z,95818.84
2019-06-26T17:44:26.209Z,95822.56
2019-06-26T17:46:56.079Z,95821.86
2019-06-26T17:49:26.052Z,95819.94
2019-06-26T17:51:55.999Z,95814.56
2019-06-26T17:54:26.911Z,95822.47
2019-06-26T17:56:56.892Z,95822.08
2019-06-26T17:59:26.748Z,95816.28
2019-06-26T18:01:56.828Z,95820.48
2019-06-26T18:04:26.772Z,95820.47
2019-06-26T18:06:56.681Z,95822.56
2019-06-26T18:09:26.696Z,95819.95
2019-06-26T18:11:56.697Z,95821.30
2019-06-26T18:14:26.712Z,95825.38
2019-06-26T18:16:56.536Z,95833.77
2019-06-26T18:19:26.580Z,95829.39
2019-06-26T18:21:56.417Z,95825.95
2019-06-26T18:24:26.322Z,95822.76
2019-06-26T18:26:56.412Z,95821.80
2019-06-26T18:29:26.316Z,95818.76
2019-06-26T18:31:56.320Z,95819.77
2019-06-26T18:34:26.235Z,95822.75
2019-06-26T18:36:56.138Z,95819.89
2019-06-26T18:39:25.978Z,95820.96
2019-06-26T18:41:55.809Z,95823.17
2019-06-26T18:44:25.726Z,95821.27
2019-06-26T18:46:55.643Z,95822.75
2019-06-26T18:49:25.633Z,95829.75
2019-06-26T18:51:55.544Z,95826.38
2019-06-26T18:54:25.522Z,95825.83
2019-06-26T18:56:55.420Z,95834.17
2019-06-26T18:59:25.319Z,95832.63
2019-06-26T19:01:55.256Z,95832.55
2019-06-26T19:04:25.266Z,95832.49
2019-06-26T19:06:55.114Z,95831.03
2019-06-26T19:09:25.019Z,95830.86
2019-06-26T19:11:54.983Z,95833.50
2019-06-26T19:14:25.224Z,95835.30
2019-06-26T19:16:55.383Z,95835.55
2019-06-26T19:19:25.467Z,95834.51
2019-06-26T19:21:55.483Z,95838.23
2019-06-26T19:24:25.332Z,95841.84
2019-06-26T19:26:55.481Z,95842.67
2019-06-26T19:29:25.575Z,95845.77
2019-06-26T19:31:55.615Z,95845.45
2019-06-26T19:34:25.546Z,95852.74
2019-06-26T19:36:55.550Z,95856.69
2019-06-26T19:39:25.594Z,95856.50
2019-06-26T19:41:55.591Z,95855.02
2019-06-26T19:44:25.629Z,95858.30
2019-06-26T19:46:55.607Z,95861.27
2019-06-26T19:49:25.597Z,95860.11
2019-06-26T19:51:55.521Z,95858.92
2019-06-26T19:54:31.049Z,95863.75
2019-06-26T19:56:58.005Z,95861.27
2019-06-26T19:59:28.004Z,95855.33
2019-06-26T20:01:57.986Z,95859.88
2019-06-26T20:04:27.977Z,95858.67
2019-06-26T20:06:57.837Z,95861.70
2019-06-26T20:09:27.812Z,95855.97
2019-06-26T20:11:57.760Z,95856.33
2019-06-26T20:14:27.790Z,95850.02
2019-06-26T20:16:58.030Z,95858.22
2019-06-26T20:19:27.948Z,95854.30
2019-06-26T20:21:57.815Z,95850.91
2019-06-26T20:24:42.763Z,95847.06
2019-06-26T20:26:59.568Z,95848.95
2019-06-26T20:29:29.412Z,95851.38
2019-06-26T20:31:59.330Z,95852.20
2019-06-26T20:34:29.445Z,95851.55
2019-06-26T20:36:59.560Z,95845.49
2019-06-26T20:39:29.446Z,95846.59
2019-06-26T20:41:59.475Z,95845.09
2019-06-26T20:44:29.517Z,95850.22
2019-06-26T20:46:59.384Z,95846.65
2019-06-26T20:49:29.273Z,95849.31
2019-06-26T20:51:59.162Z,95845.17
2019-06-26T20:54:29.014Z,95848.91
2019-06-26T20:56:58.865Z,95848.38
2019-06-26T20:59:28.787Z,95854.73
2019-06-26T21:01:58.689Z,95844.20
2019-06-26T21:04:28.612Z,95847.37
2019-06-26T21:06:58.533Z,95845.52
2019-06-26T21:09:28.352Z,95846.95
2019-06-26T21:11:58.181Z,95848.58
2019-06-26T21:14:28.150Z,95854.95
2019-06-26T21:16:58.074Z,95851.81
2019-06-26T21:19:28.028Z,95850.77
2019-06-26T21:21:58.010Z,95847.41
2019-06-26T21:24:27.944Z,95851.08
2019-06-26T21:26:57.880Z,95848.53
2019-06-26T21:29:27.810Z,95848.58
2019-06-26T21:31:57.648Z,95853.34
2019-06-26T21:34:27.475Z,95853.59
2019-06-26T21:36:57.311Z,95858.13
2019-06-26T21:39:28.299Z,95851.09
2019-06-26T21:41:58.208Z,95853.25
2019-06-26T21:44:28.157Z,95853.86
2019-06-26T21:46:58.927Z,95859.38
2019-06-26T21:49:28.769Z,95859.88
2019-06-26T21:51:58.753Z,95859.88
2019-06-26T21:54:28.593Z,95856.01
2019-06-26T21:57:16.523Z,95860.81
2019-06-26T22:00:05.805Z,95856.70
2019-06-26T22:02:56.784Z,95863.08
2019-06-26T22:05:27.172Z,95866.50
2019-06-26T22:08:13.815Z,95864.49
2019-06-26T22:10:45.374Z,95862.69
2019-06-26T22:13:15.786Z,95861.12
2019-06-26T22:15:45.928Z,95861.13
2019-06-26T22:18:16.028Z,95857.23
2019-06-26T22:20:46.018Z,95852.23
2019-06-26T22:23:15.868Z,95852.77
2019-06-26T22:25:50.844Z,95855.44
2019-06-26T22:28:17.553Z,95860.97
2019-06-26T22:30:47.456Z,95862.34
2019-06-26T22:33:17.465Z,95863.41
2019-06-26T22:35:48.580Z,95859.77
2019-06-26T22:38:18.670Z,95858.77
2019-06-26T22:40:48.654Z,95857.25
2019-06-26T22:43:18.673Z,95853.87
2019-06-26T22:45:49.203Z,95860.20
2019-06-26T22:48:19.149Z,95855.21
2019-06-26T22:50:49.208Z,95852.33
2019-06-26T22:53:19.197Z,95859.92
2019-06-26T22:56:03.531Z,95857.05
2019-06-26T22:58:21.888Z,95856.55
2019-06-26T23:00:51.729Z,95861.08
2019-06-26T23:03:21.630Z,95861.36
2019-06-26T23:05:51.659Z,95860.33
2019-06-26T23:08:21.476Z,95853.50
2019-06-26T23:10:51.386Z,95857.94
2019-06-26T23:13:21.375Z,95853.45
2019-06-26T23:15:51.950Z,95859.27
2019-06-26T23:18:21.951Z,95856.69
2019-06-26T23:20:51.778Z,95852.00
2019-06-26T23:23:21.783Z,95854.08
2019-06-26T23:25:51.687Z,95853.60
2019-06-26T23:28:21.591Z,95847.84
2019-06-26T23:30:51.507Z,95846.80
2019-06-26T23:33:21.366Z,95849.70
2019-06-26T23:35:51.702Z,95845.77
2019-06-26T23:38:21.905Z,95847.35
2019-06-26T23:40:52.138Z,95843.68
2019-06-26T23:43:22.001Z,95843.73
2019-06-26T23:45:51.976Z,95852.94
2019-06-26T23:48:21.827Z,95851.36
2019-06-26T23:50:52.806Z,95842.95
2019-06-26T23:53:22.717Z,95839.53
2019-06-26T23:55:52.563Z,95837.96
2019-06-26T23:58:23.601Z,95836.12
